Time;durP1;ratioP1;P1;durP2;ratioP2;P2;SDS_P1;SDS_P2;PMS_P1;PMS_P2;Temp;Humidity;BMP_temperature;BMP_pressure;BME280_temperature;BME280_humidity;BME280_pressure;Samples;Min_cycle;Max_cycle;Signal;HPM_P1;HPM_P2
2023/02/10 06:30:24;;;;;;;;;44.75;33.75;;;;;;;;6289193;22;46428;-60
2023/02/10 06:32:49;;;;;;;;;47.50;38.75;;;;;;;;6397276;22;45433;-60
2023/02/10 06:35:14;;;;;;;;;39.75;35.50;;;;;;;;6400321;22;46341;-63
2023/02/10 06:37:39;;;;;;;;;43.25;35.75;;;;;;;;6401764;22;45319;-61
2023/02/10 06:40:05;;;;;;;;;39.75;35.00;;;;;;;;6401890;22;45433;-62
2023/02/10 06:42:31;;;;;;;;;53.25;39.25;;;;;;;;6402294;22;45462;-66
2023/02/10 06:44:56;;;;;;;;;46.75;36.25;;;;;;;;6402661;22;46746;-61
2023/02/10 06:47:21;;;;;;;;;48.00;36.75;;;;;;;;6400409;22;45384;-61
2023/02/10 06:49:47;;;;;;;;;42.75;35.50;;;;;;;;6402482;22;45344;-61
2023/02/10 06:52:12;;;;;;;;;44.50;37.00;;;;;;;;6402064;22;45354;-61
2023/02/10 06:54:37;;;;;;;;;44.00;36.00;;;;;;;;6402088;22;45407;-62
2023/02/10 06:57:02;;;;;;;;;39.25;35.25;;;;;;;;6401730;22;45357;-62
2023/02/10 06:59:27;;;;;;;;;42.50;36.00;;;;;;;;6402776;22;45272;-64
2023/02/10 07:01:59;;;;;;;;;44.75;36.25;;;;;;;;6404359;22;45076;-63
2023/02/10 07:04:25;;;;;;;;;37.67;32.33;;;;;;;;6402792;22;45654;-61
2023/02/10 07:06:50;;;;;;;;;38.25;33.25;;;;;;;;6403069;22;45348;-61
2023/02/10 07:09:15;;;;;;;;;41.50;35.75;;;;;;;;6402720;22;45258;-61
2023/02/10 07:11:40;;;;;;;;;43.33;35.33;;;;;;;;6403066;22;45362;-61
2023/02/10 07:14:05;;;;;;;;;44.67;35.00;;;;;;;;6400841;22;46011;-61
2023/02/10 07:16:31;;;;;;;;;47.25;36.25;;;;;;;;6402946;22;45378;-60
2023/02/10 07:18:56;;;;;;;;;41.00;35.00;;;;;;;;6403188;22;45151;-60
2023/02/10 07:21:21;;;;;;;;;45.33;35.00;;;;;;;;6402264;22;45291;-61
2023/02/10 07:23:46;;;;;;;;;50.75;41.00;;;;;;;;6402081;22;46275;-61
2023/02/10 07:26:12;;;;;;;;;44.50;35.50;;;;;;;;6373303;22;45283;-60
2023/02/10 07:28:37;;;;;;;;;41.33;36.00;;;;;;;;6402473;22;45364;-61
2023/02/10 07:31:03;;;;;;;;;43.67;36.67;;;;;;;;6398412;22;45518;-61
2023/02/10 07:33:28;;;;;;;;;44.75;37.50;;;;;;;;6371026;22;46829;-61
2023/02/10 07:35:53;;;;;;;;;44.50;36.25;;;;;;;;6402158;22;45234;-62
2023/02/10 07:38:18;;;;;;;;;44.75;36.00;;;;;;;;6372115;22;45356;-62
2023/02/10 07:40:44;;;;;;;;;52.25;39.50;;;;;;;;6401922;22;45356;-60
2023/02/10 07:43:09;;;;;;;;;44.50;36.00;;;;;;;;6402187;22;45432;-59
2023/02/10 07:45:34;;;;;;;;;40.50;35.50;;;;;;;;6402474;22;45359;-60
2023/02/10 07:47:59;;;;;;;;;42.67;34.33;;;;;;;;6402046;22;45203;-60
2023/02/10 07:50:25;;;;;;;;;38.50;35.75;;;;;;;;6401844;22;45285;-59
2023/02/10 07:52:50;;;;;;;;;42.25;35.50;;;;;;;;6402520;22;45219;-59
2023/02/10 07:55:15;;;;;;;;;42.75;35.50;;;;;;;;6397890;22;45396;-60
2023/02/10 07:57:41;;;;;;;;;46.00;38.50;;;;;;;;6402450;22;45324;-60
2023/02/10 08:00:07;;;;;;;;;46.25;39.75;;;;;;;;6399988;22;45375;-60
2023/02/10 08:02:32;;;;;;;;;35.25;32.25;;;;;;;;6399417;22;45443;-60
2023/02/10 08:04:58;;;;;;;;;50.00;40.00;;;;;;;;6399989;22;45421;-60
2023/02/10 08:07:24;;;;;;;;;39.75;36.75;;;;;;;;6399760;22;45328;-60
2023/02/10 08:09:49;;;;;;;;;42.50;35.75;;;;;;;;6399683;22;45362;-60
2023/02/10 08:12:14;;;;;;;;;44.75;39.00;;;;;;;;6399796;22;46204;-60
2023/02/10 08:14:39;;;;;;;;;41.00;35.50;;;;;;;;6399575;22;45324;-60
2023/02/10 08:17:05;;;;;;;;;45.00;36.25;;;;;;;;6400940;22;45318;-60
2023/02/10 08:19:30;;;;;;;;;49.75;37.75;;;;;;;;6402290;22;45347;-60
2023/02/10 08:21:55;;;;;;;;;47.50;34.75;;;;;;;;6402605;22;45463;-63
2023/02/10 08:24:20;;;;;;;;;48.25;37.50;;;;;;;;6401902;22;45355;-59
2023/02/10 08:26:45;;;;;;;;;33.25;33.00;;;;;;;;6401543;22;45243;-59
2023/02/10 08:29:12;;;;;;;;;50.25;36.00;;;;;;;;6402735;22;45556;-62
2023/02/10 08:31:37;;;;;;;;;40.00;35.33;;;;;;;;6372914;22;45423;-60
2023/02/10 08:34:02;;;;;;;;;49.00;38.00;;;;;;;;6373553;22;45571;-60
2023/02/10 08:36:28;;;;;;;;;42.75;33.50;;;;;;;;6400883;22;45232;-60
2023/02/10 08:38:53;;;;;;;;;45.25;35.50;;;;;;;;6401742;22;45247;-59
2023/02/10 08:41:18;;;;;;;;;42.25;36.00;;;;;;;;6401483;22;45138;-60
2023/02/10 08:43:44;;;;;;;;;44.25;37.00;;;;;;;;6402217;22;45260;-60
2023/02/10 08:46:10;;;;;;;;;40.33;34.33;;;;;;;;6403127;22;45261;-60
2023/02/10 08:48:35;;;;;;;;;44.75;36.25;;;;;;;;6402442;22;45255;-60
2023/02/10 08:51:04;;;;;;;;;38.33;34.33;;;;;;;;6402731;22;45227;-60
2023/02/10 08:53:29;;;;;;;;;42.00;36.50;;;;;;;;6401898;22;45306;-60
2023/02/10 08:55:59;;;;;;;;;50.00;38.50;;;;;;;;6402936;22;45543;-60
2023/02/10 08:58:24;;;;;;;;;38.50;35.50;;;;;;;;6402470;22;45594;-60
2023/02/10 09:00:50;;;;;;;;;37.75;34.25;;;;;;;;6403550;22;45971;-61
2023/02/10 09:03:15;;;;;;;;;36.67;34.00;;;;;;;;6403235;22;45238;-60
2023/02/10 09:05:40;;;;;;;;;46.00;36.67;;;;;;;;6404212;22;45236;-61
2023/02/10 09:08:06;;;;;;;;;33.67;32.67;;;;;;;;6403348;22;45520;-60
2023/02/10 09:10:31;;;;;;;;;37.00;33.00;;;;;;;;6404251;22;45921;-60
2023/02/10 09:12:56;;;;;;;;;42.50;35.25;;;;;;;;6403332;22;45246;-60
2023/02/10 09:15:21;;;;;;;;;39.50;35.25;;;;;;;;6404219;22;45443;-60
2023/02/10 09:17:47;;;;;;;;;38.33;34.33;;;;;;;;6404162;22;45560;-61
2023/02/10 09:20:12;;;;;;;;;42.25;34.00;;;;;;;;6398865;22;46102;-61
2023/02/10 09:22:37;;;;;;;;;33.67;30.00;;;;;;;;6402520;22;45287;-60
2023/02/10 09:25:02;;;;;;;;;41.33;34.67;;;;;;;;6371133;22;45410;-61
2023/02/10 09:27:28;;;;;;;;;41.00;32.33;;;;;;;;6402282;22;45376;-61
2023/02/10 09:29:53;;;;;;;;;37.67;32.33;;;;;;;;6372292;22;47087;-60
2023/02/10 09:32:19;;;;;;;;;40.33;34.33;;;;;;;;6370825;22;45309;-60
2023/02/10 09:34:45;;;;;;;;;39.33;32.67;;;;;;;;6402506;22;45393;-61
2023/02/10 09:37:10;;;;;;;;;42.67;35.67;;;;;;;;6401981;22;45430;-60
2023/02/10 09:39:35;;;;;;;;;35.00;31.67;;;;;;;;6403022;22;45323;-60
2023/02/10 09:42:05;;;;;;;;;38.00;34.33;;;;;;;;6401864;22;45313;-61
2023/02/10 09:44:32;;;;;;;;;40.00;36.00;;;;;;;;6403148;22;45436;-61
2023/02/10 09:46:58;;;;;;;;;43.00;34.00;;;;;;;;6402777;22;45450;-61
2023/02/10 09:49:42;;;;;;;;;45.00;36.33;;;;;;;;6402697;22;45868;-61
2023/02/10 09:52:22;;;;;;;;;38.67;33.33;;;;;;;;6401781;22;45352;-61
2023/02/10 09:54:48;;;;;;;;;41.00;34.00;;;;;;;;6402506;22;45271;-61
2023/02/10 09:57:15;;;;;;;;;39.67;34.00;;;;;;;;6401521;22;45261;-61
2023/02/10 09:59:42;;;;;;;;;31.67;27.00;;;;;;;;6402807;22;46218;-61
2023/02/10 10:02:14;;;;;;;;;33.33;32.00;;;;;;;;6401815;22;45407;-61
2023/02/10 10:04:39;;;;;;;;;51.67;36.33;;;;;;;;6403753;22;45245;-61
2023/02/10 10:07:20;;;;;;;;;34.33;31.00;;;;;;;;6402931;22;45311;-61
2023/02/10 10:09:49;;;;;;;;;35.67;32.00;;;;;;;;6401799;22;47109;-61
2023/02/10 10:12:19;;;;;;;;;30.67;29.33;;;;;;;;6402135;22;45267;-61
2023/02/10 10:14:44;;;;;;;;;41.67;34.00;;;;;;;;6401776;22;45363;-61
2023/02/10 10:17:09;;;;;;;;;35.00;31.67;;;;;;;;6401622;22;45379;-61
2023/02/10 10:19:42;;;;;;;;;30.00;26.33;;;;;;;;6402092;22;46927;-61
2023/02/10 10:22:07;;;;;;;;;34.00;30.67;;;;;;;;6402078;22;45368;-61
2023/02/10 10:24:39;;;;;;;;;32.33;31.00;;;;;;;;6402872;22;45845;-61
2023/02/10 10:27:20;;;;;;;;;36.00;31.00;;;;;;;;6373869;22;45288;-60
2023/02/10 10:29:46;;;;;;;;;34.33;30.00;;;;;;;;6402592;22;46099;-60
2023/02/10 10:32:15;;;;;;;;;37.67;30.67;;;;;;;;6402082;22;45326;-60
2023/02/10 10:34:42;;;;;;;;;39.33;32.00;;;;;;;;6402990;22;45286;-62
2023/02/10 10:37:14;;;;;;;;;38.67;30.33;;;;;;;;6402056;22;45426;-62
2023/02/10 10:39:44;;;;;;;;;34.33;31.33;;;;;;;;6401667;22;45327;-61
2023/02/10 10:42:18;;;;;;;;;35.33;29.67;;;;;;;;6400712;22;45403;-61
2023/02/10 10:44:44;;;;;;;;;35.67;29.67;;;;;;;;6397371;22;45756;-61
2023/02/10 10:47:18;;;;;;;;;39.33;33.00;;;;;;;;6402693;22;45466;-61
2023/02/10 10:49:43;;;;;;;;;43.00;33.33;;;;;;;;6402246;22;45348;-62
2023/02/10 10:52:28;;;;;;;;;32.67;28.00;;;;;;;;6402445;22;45387;-61
2023/02/10 10:54:54;;;;;;;;;37.67;31.00;;;;;;;;6402322;22;45470;-60
2023/02/10 10:57:19;;;;;;;;;33.67;30.00;;;;;;;;6402102;22;45343;-61
2023/02/10 10:59:58;;;;;;;;;44.00;34.00;;;;;;;;6401532;22;46190;-61
2023/02/10 11:02:25;;;;;;;;;50.75;42.75;;;;;;;;6402430;22;45270;-61
2023/02/10 11:05:05;;;;;;;;;41.00;32.00;;;;;;;;6402541;22;45383;-61
2023/02/10 11:07:31;;;;;;;;;38.00;33.00;;;;;;;;6372929;22;45455;-55
2023/02/10 11:09:58;;;;;;;;;37.67;33.33;;;;;;;;6400654;22;46963;-61
2023/02/10 11:12:27;;;;;;;;;41.00;33.33;;;;;;;;6400653;22;45336;-59
2023/02/10 11:14:56;;;;;;;;;46.67;35.67;;;;;;;;6402369;22;45294;-58
2023/02/10 11:17:24;;;;;;;;;42.00;33.00;;;;;;;;6401222;22;45297;-58
2023/02/10 11:19:57;;;;;;;;;39.67;32.67;;;;;;;;6402170;22;45606;-59
2023/02/10 11:22:22;;;;;;;;;46.00;37.00;;;;;;;;6399420;22;45167;-61
2023/02/10 11:24:49;;;;;;;;;40.67;34.00;;;;;;;;6401910;22;45286;-60
2023/02/10 11:27:17;;;;;;;;;43.67;35.00;;;;;;;;6402011;22;45228;-60
2023/02/10 11:29:48;;;;;;;;;45.33;35.67;;;;;;;;6373099;22;45365;-67
2023/02/10 11:32:24;;;;;;;;;39.67;34.33;;;;;;;;6400203;22;45479;-65
2023/02/10 11:34:50;;;;;;;;;39.33;34.00;;;;;;;;6401628;22;45314;-71
2023/02/10 11:37:29;;;;;;;;;45.75;36.75;;;;;;;;6401137;22;45345;-62
2023/02/10 11:39:56;;;;;;;;;45.33;36.00;;;;;;;;6400930;22;48119;-73
2023/02/10 11:42:23;;;;;;;;;41.00;34.33;;;;;;;;6402168;22;45309;-65
2023/02/10 11:44:56;;;;;;;;;46.33;38.33;;;;;;;;6402617;22;45349;-61
2023/02/10 11:47:21;;;;;;;;;42.67;36.33;;;;;;;;6372124;22;45369;-62
2023/02/10 11:49:49;;;;;;;;;48.33;37.00;;;;;;;;6400678;22;45346;-65
2023/02/10 11:52:15;;;;;;;;;43.67;36.00;;;;;;;;6400376;22;45359;-62
2023/02/10 11:54:41;;;;;;;;;46.33;38.00;;;;;;;;6401243;22;45499;-64
2023/02/10 12:00:25;;;;;;;;;51.25;41.75;;;;;;;;6401707;22;45345;-60
2023/02/10 12:03:00;;;;;;;;;52.67;41.00;;;;;;;;6372864;22;45352;-65
2023/02/10 12:05:44;;;;;;;;;48.00;39.00;;;;;;;;6401069;22;45356;-65
2023/02/10 12:08:15;;;;;;;;;51.50;39.50;;;;;;;;6398949;22;45400;-63
2023/02/10 12:10:59;;;;;;;;;41.67;36.33;;;;;;;;6400555;22;46112;-62
2023/02/10 12:13:47;;;;;;;;;41.00;32.67;;;;;;;;6400918;22;45636;-66
2023/02/10 12:16:18;;;;;;;;;46.33;37.00;;;;;;;;6340564;22;45502;-67
2023/02/10 12:18:43;;;;;;;;;48.67;38.67;;;;;;;;6401481;22;45536;-65
2023/02/10 12:21:12;;;;;;;;;51.00;39.00;;;;;;;;6402464;22;46095;-62
2023/02/10 12:23:38;;;;;;;;;46.00;37.33;;;;;;;;6402996;22;45363;-63
2023/02/10 12:26:12;;;;;;;;;45.25;36.75;;;;;;;;6403128;22;45388;-60
2023/02/10 12:28:56;;;;;;;;;53.25;43.00;;;;;;;;6403246;22;45363;-67
2023/02/10 12:31:44;;;;;;;;;49.50;40.00;;;;;;;;6400360;22;45585;-61
2023/02/10 12:34:33;;;;;;;;;46.67;37.33;;;;;;;;6401344;22;45458;-61
2023/02/10 12:37:04;;;;;;;;;53.00;42.25;;;;;;;;6341936;22;45408;-61
2023/02/10 12:39:51;;;;;;;;;51.75;41.50;;;;;;;;6403493;22;45283;-61
2023/02/10 12:42:19;;;;;;;;;47.00;39.00;;;;;;;;6402496;22;45295;-61
2023/02/10 12:45:04;;;;;;;;;49.00;39.75;;;;;;;;6403543;22;45276;-61
2023/02/10 12:47:30;;;;;;;;;44.00;37.33;;;;;;;;6401801;22;45425;-61
2023/02/10 12:49:58;;;;;;;;;46.00;36.33;;;;;;;;6403689;22;45407;-61
2023/02/10 12:52:25;;;;;;;;;46.67;36.67;;;;;;;;6401926;22;46004;-63
2023/02/10 12:55:00;;;;;;;;;46.33;37.00;;;;;;;;6403096;22;45370;-62
2023/02/10 12:57:31;;;;;;;;;49.67;38.00;;;;;;;;6398995;22;45408;-60
2023/02/10 12:59:59;;;;;;;;;44.67;37.33;;;;;;;;6403141;22;45315;-60
2023/02/10 13:02:37;;;;;;;;;47.67;38.33;;;;;;;;6401800;22;47022;-60
2023/02/10 13:05:06;;;;;;;;;47.33;38.67;;;;;;;;6403461;22;45225;-60
2023/02/10 13:07:37;;;;;;;;;50.67;36.67;;;;;;;;6369731;22;45386;-60
2023/02/10 13:10:29;;;;;;;;;40.67;35.00;;;;;;;;6401332;22;45250;-60
2023/02/10 13:12:57;;;;;;;;;41.33;34.67;;;;;;;;6395928;22;46935;-60
2023/02/10 13:15:38;;;;;;;;;39.00;35.00;;;;;;;;6402543;22;45316;-60
2023/02/10 13:18:13;;;;;;;;;41.33;34.67;;;;;;;;6401912;22;45419;-60
2023/02/10 13:20:45;;;;;;;;;44.33;35.00;;;;;;;;6403008;22;45257;-60
2023/02/10 13:23:33;;;;;;;;;37.33;32.33;;;;;;;;6373439;22;48140;-60
2023/02/10 13:26:17;;;;;;;;;36.00;30.00;;;;;;;;6400309;22;45341;-60
2023/02/10 13:28:56;;;;;;;;;35.67;30.00;;;;;;;;6402560;22;45312;-60
2023/02/10 13:31:33;;;;;;;;;37.33;32.00;;;;;;;;6401616;22;45343;-60
2023/02/10 13:34:01;;;;;;;;;36.33;32.00;;;;;;;;6402624;22;46052;-60
2023/02/10 13:36:28;;;;;;;;;40.00;32.00;;;;;;;;6401301;22;45643;-60
2023/02/10 13:39:12;;;;;;;;;32.33;28.67;;;;;;;;6400770;22;45439;-60
2023/02/10 13:41:46;;;;;;;;;29.67;26.67;;;;;;;;6400417;22;45360;-60
2023/02/10 13:44:19;;;;;;;;;35.00;30.67;;;;;;;;6396700;22;45337;-60
2023/02/10 13:46:48;;;;;;;;;34.33;31.00;;;;;;;;6401177;22;45320;-60
2023/02/10 13:49:17;;;;;;;;;28.33;28.33;;;;;;;;6401109;22;45333;-60
2023/02/10 13:51:43;;;;;;;;;29.33;28.33;;;;;;;;6402641;22;45239;-60
2023/02/10 13:54:23;;;;;;;;;31.67;28.33;;;;;;;;6401514;22;45709;-60
2023/02/10 13:56:55;;;;;;;;;23.33;22.00;;;;;;;;6402146;22;45342;-60
2023/02/10 13:59:21;;;;;;;;;26.67;24.33;;;;;;;;6401710;22;45443;-60
2023/02/10 14:02:00;;;;;;;;;30.33;27.33;;;;;;;;6402112;22;45287;-60
2023/02/10 14:04:40;;;;;;;;;29.33;26.00;;;;;;;;6401929;22;46270;-60
2023/02/10 14:07:24;;;;;;;;;25.33;24.00;;;;;;;;6402003;22;45305;-60
2023/02/10 14:10:00;;;;;;;;;29.33;27.67;;;;;;;;6402956;22;45372;-60
2023/02/10 14:12:27;;;;;;;;;26.67;24.33;;;;;;;;6401599;22;45319;-61
2023/02/10 14:14:53;;;;;;;;;35.33;28.33;;;;;;;;6401560;22;46953;-60
2023/02/10 14:17:20;;;;;;;;;29.00;26.00;;;;;;;;6373134;22;45776;-60
2023/02/10 14:19:47;;;;;;;;;32.33;28.33;;;;;;;;6402531;22;45438;-60
2023/02/10 14:22:25;;;;;;;;;30.33;27.00;;;;;;;;6401024;22;45450;-60
2023/02/10 14:24:53;;;;;;;;;31.33;28.67;;;;;;;;6402260;22;46147;-60
2023/02/10 14:27:19;;;;;;;;;31.00;28.00;;;;;;;;6400788;22;45407;-60
2023/02/10 14:29:48;;;;;;;;;26.33;23.67;;;;;;;;6401894;22;45370;-60
2023/02/10 14:32:15;;;;;;;;;31.67;30.00;;;;;;;;6400311;22;45444;-60
2023/02/10 14:34:40;;;;;;;;;30.33;26.33;;;;;;;;6401129;22;45248;-61
2023/02/10 14:37:16;;;;;;;;;29.33;27.67;;;;;;;;6399177;22;45540;-60
2023/02/10 14:39:49;;;;;;;;;31.00;22.67;;;;;;;;6398175;22;45368;-60
2023/02/10 14:42:14;;;;;;;;;27.67;22.67;;;;;;;;6399971;22;45405;-60
2023/02/10 14:44:45;;;;;;;;;21.33;20.33;;;;;;;;6402150;22;45233;-60
2023/02/10 14:47:24;;;;;;;;;24.67;23.33;;;;;;;;6400220;22;45672;-60
2023/02/10 14:49:50;;;;;;;;;22.33;17.67;;;;;;;;6372575;22;45341;-60
2023/02/10 14:52:39;;;;;;;;;22.67;22.33;;;;;;;;6400279;22;45288;-60
2023/02/10 14:55:23;;;;;;;;;27.33;22.33;;;;;;;;6401318;22;45393;-60
2023/02/10 14:57:48;;;;;;;;;27.67;23.00;;;;;;;;6400393;22;45474;-60
2023/02/10 15:00:13;;;;;;;;;22.67;22.67;;;;;;;;6398734;22;45371;-60
2023/02/10 15:02:39;;;;;;;;;32.33;24.00;;;;;;;;6401615;22;45442;-60
2023/02/10 15:05:08;;;;;;;;;27.00;23.00;;;;;;;;6401369;22;46119;-60
2023/02/10 15:07:36;;;;;;;;;25.00;22.33;;;;;;;;6401210;22;45378;-60
2023/02/10 15:10:19;;;;;;;;;19.33;18.00;;;;;;;;6402156;22;45346;-60
2023/02/10 15:12:45;;;;;;;;;23.33;23.33;;;;;;;;6400672;22;45838;-60
2023/02/10 15:15:22;;;;;;;;;23.00;21.00;;;;;;;;6400537;22;45910;-60
2023/02/10 15:17:49;;;;;;;;;22.33;21.33;;;;;;;;6400463;22;45344;-61
2023/02/10 15:20:15;;;;;;;;;25.33;23.67;;;;;;;;6400784;22;45430;-61
2023/02/10 15:22:44;;;;;;;;;20.00;19.33;;;;;;;;6401524;22;45484;-59
2023/02/10 15:25:37;;;;;;;;;25.00;20.00;;;;;;;;6401243;22;46263;-59
2023/02/10 15:28:08;;;;;;;;;26.00;24.00;;;;;;;;6399916;22;45376;-60
2023/02/10 15:30:41;;;;;;;;;29.00;25.67;;;;;;;;6399889;22;45379;-59
2023/02/10 15:33:15;;;;;;;;;31.33;29.33;;;;;;;;6400310;22;45297;-60
2023/02/10 15:35:40;;;;;;;;;33.67;30.00;;;;;;;;6372422;22;46204;-60
2023/02/10 15:38:09;;;;;;;;;33.00;28.67;;;;;;;;6399826;22;45382;-60
2023/02/10 15:40:34;;;;;;;;;28.00;24.00;;;;;;;;6401779;22;45389;-60
2023/02/10 15:43:03;;;;;;;;;31.33;28.67;;;;;;;;6401295;22;45388;-60
2023/02/10 15:45:29;;;;;;;;;30.33;28.33;;;;;;;;6401250;22;45377;-60
2023/02/10 15:48:20;;;;;;;;;35.00;29.33;;;;;;;;6401089;22;45176;-60
2023/02/10 15:50:45;;;;;;;;;30.33;25.33;;;;;;;;6367622;22;45536;-60
2023/02/10 15:53:12;;;;;;;;;30.67;24.67;;;;;;;;6400783;22;45288;-60
2023/02/10 15:55:39;;;;;;;;;43.00;35.00;;;;;;;;6399553;22;45613;-60
2023/02/10 15:58:05;;;;;;;;;33.33;29.33;;;;;;;;6401130;22;45280;-61
2023/02/10 16:00:31;;;;;;;;;28.00;26.67;;;;;;;;6400368;22;45288;-60
2023/02/10 16:02:57;;;;;;;;;26.00;25.33;;;;;;;;6399554;22;45509;-61
2023/02/10 16:05:22;;;;;;;;;29.00;28.00;;;;;;;;6400449;22;45376;-60
2023/02/10 16:07:48;;;;;;;;;27.00;27.00;;;;;;;;6400108;22;45320;-60
2023/02/10 16:10:23;;;;;;;;;47.00;36.33;;;;;;;;6400982;22;45330;-60
2023/02/10 16:12:49;;;;;;;;;42.33;33.00;;;;;;;;6400613;22;45377;-60
2023/02/10 16:15:16;;;;;;;;;42.67;31.67;;;;;;;;6398933;22;46378;-60
2023/02/10 16:17:43;;;;;;;;;53.67;40.00;;;;;;;;6401274;22;45288;-60
2023/02/10 16:20:13;;;;;;;;;82.75;52.50;;;;;;;;6400585;22;44921;-60
2023/02/10 16:22:38;;;;;;;;;32.00;29.33;;;;;;;;6400556;22;45339;-60
2023/02/10 16:25:04;;;;;;;;;35.67;31.33;;;;;;;;6396993;22;46522;-61
2023/02/10 16:27:29;;;;;;;;;36.33;30.00;;;;;;;;6400863;22;45350;-61
2023/02/10 16:29:54;;;;;;;;;44.50;38.00;;;;;;;;6401473;22;45329;-60
2023/02/10 16:32:19;;;;;;;;;51.25;41.50;;;;;;;;6399929;22;45300;-61
2023/02/10 16:34:45;;;;;;;;;38.00;31.00;;;;;;;;6399777;22;46038;-59
2023/02/10 16:37:20;;;;;;;;;34.00;28.67;;;;;;;;6400124;22;45308;-64
2023/02/10 16:39:45;;;;;;;;;32.67;30.67;;;;;;;;6400712;22;45361;-62
2023/02/10 16:42:11;;;;;;;;;34.00;30.00;;;;;;;;6400364;22;45420;-64
2023/02/10 16:44:37;;;;;;;;;37.67;32.00;;;;;;;;6400415;22;46065;-71
2023/02/10 16:47:02;;;;;;;;;31.67;30.67;;;;;;;;6401747;22;45508;-70
2023/02/10 16:49:27;;;;;;;;;33.33;31.33;;;;;;;;6400811;22;45293;-70
2023/02/10 16:51:54;;;;;;;;;34.00;31.00;;;;;;;;6401791;22;45575;-70
2023/02/10 16:54:19;;;;;;;;;31.67;30.00;;;;;;;;6400257;22;47138;-70
2023/02/10 16:56:44;;;;;;;;;28.33;25.67;;;;;;;;6401859;22;45283;-68
2023/02/10 16:59:12;;;;;;;;;35.33;29.67;;;;;;;;6371902;22;45321;-69
2023/02/10 17:01:38;;;;;;;;;36.33;28.00;;;;;;;;6373082;22;45485;-69
2023/02/10 17:04:03;;;;;;;;;35.33;30.67;;;;;;;;6401130;22;46119;-69
2023/02/10 17:06:30;;;;;;;;;34.00;29.33;;;;;;;;6402294;22;45389;-68
2023/02/10 17:08:55;;;;;;;;;34.00;31.33;;;;;;;;6401878;22;45399;-69
2023/02/10 17:11:20;;;;;;;;;36.33;33.67;;;;;;;;6402991;22;45336;-69
2023/02/10 17:13:46;;;;;;;;;33.33;30.33;;;;;;;;6401820;22;47227;-71
2023/02/10 17:16:37;;;;;;;;;41.00;33.00;;;;;;;;6372990;22;45597;-70
2023/02/10 17:19:04;;;;;;;;;38.67;31.00;;;;;;;;6396441;22;45364;-68
2023/02/10 17:21:29;;;;;;;;;38.00;33.00;;;;;;;;6402186;22;45389;-69
2023/02/10 17:23:54;;;;;;;;;42.33;33.33;;;;;;;;6401936;22;45326;-69
2023/02/10 17:26:20;;;;;;;;;39.67;33.00;;;;;;;;6401751;22;45340;-69
2023/02/10 17:28:45;;;;;;;;;41.33;36.33;;;;;;;;6402186;22;45338;-69
2023/02/10 17:31:14;;;;;;;;;35.33;33.33;;;;;;;;6402854;22;45345;-69
2023/02/10 17:33:39;;;;;;;;;42.00;36.67;;;;;;;;6401460;22;45330;-69
2023/02/10 17:36:05;;;;;;;;;48.00;37.00;;;;;;;;6399377;22;45572;-68
2023/02/10 17:41:14;;;;;;;;;47.00;37.50;;;;;;;;6402423;22;45600;-69
2023/02/10 17:43:39;;;;;;;;;44.00;36.25;;;;;;;;6402298;22;45445;-69
2023/02/10 17:46:04;;;;;;;;;43.67;33.67;;;;;;;;6402008;22;45245;-68
2023/02/10 17:48:30;;;;;;;;;40.67;33.33;;;;;;;;6403557;22;45485;-68
2023/02/10 17:50:58;;;;;;;;;38.67;34.00;;;;;;;;6402979;22;45238;-67
2023/02/10 17:53:24;;;;;;;;;42.67;36.00;;;;;;;;6402084;22;46024;-68
2023/02/10 17:55:49;;;;;;;;;40.33;34.33;;;;;;;;6402456;22;45167;-71
2023/02/10 17:58:15;;;;;;;;;43.25;34.50;;;;;;;;6401913;22;45292;-72
2023/02/10 18:00:40;;;;;;;;;43.50;34.25;;;;;;;;6401542;22;45233;-72
2023/02/10 18:03:05;;;;;;;;;56.25;45.50;;;;;;;;6401949;22;45434;-69
2023/02/10 18:05:30;;;;;;;;;76.75;69.00;;;;;;;;6402013;22;45327;-69
2023/02/10 18:07:56;;;;;;;;;85.25;76.00;;;;;;;;6400668;22;45589;-70
2023/02/10 18:10:21;;;;;;;;;84.50;80.25;;;;;;;;6402330;22;45561;-70
2023/02/10 18:12:46;;;;;;;;;74.00;60.50;;;;;;;;6403102;22;46128;-70
2023/02/10 18:15:11;;;;;;;;;64.00;50.00;;;;;;;;6403056;22;45388;-69
2023/02/10 18:17:37;;;;;;;;;54.25;45.50;;;;;;;;6401349;22;45301;-68
2023/02/10 18:20:03;;;;;;;;;68.00;55.75;;;;;;;;6403091;22;45396;-69
2023/02/10 18:22:28;;;;;;;;;60.50;48.50;;;;;;;;6402465;22;45624;-69
2023/02/10 18:24:57;;;;;;;;;61.50;49.50;;;;;;;;6402752;22;45357;-68
2023/02/10 18:27:22;;;;;;;;;62.00;46.25;;;;;;;;6402037;22;45446;-70
2023/02/10 18:29:48;;;;;;;;;57.75;46.75;;;;;;;;6402746;22;45466;-69
2023/02/10 18:32:13;;;;;;;;;57.50;44.00;;;;;;;;6401504;22;45344;-69
2023/02/10 18:34:38;;;;;;;;;57.00;45.25;;;;;;;;6402844;22;45347;-69
2023/02/10 18:37:03;;;;;;;;;56.75;43.25;;;;;;;;6401541;22;45374;-68
2023/02/10 18:39:29;;;;;;;;;61.25;48.00;;;;;;;;6402923;22;45351;-69
2023/02/10 18:41:54;;;;;;;;;62.75;49.00;;;;;;;;6401785;22;46118;-68
2023/02/10 18:44:19;;;;;;;;;58.50;46.25;;;;;;;;6401681;22;45291;-68
2023/02/10 18:46:44;;;;;;;;;53.50;44.75;;;;;;;;6402261;22;45489;-67
2023/02/10 18:49:09;;;;;;;;;66.00;50.50;;;;;;;;6401849;22;45407;-67
2023/02/10 18:51:35;;;;;;;;;57.75;45.25;;;;;;;;6402583;22;46173;-68
2023/02/10 18:54:00;;;;;;;;;58.75;46.00;;;;;;;;6402345;22;45444;-67
2023/02/10 18:56:25;;;;;;;;;57.75;44.00;;;;;;;;6403047;22;45364;-68
2023/02/10 18:58:50;;;;;;;;;58.25;47.75;;;;;;;;6402152;22;45334;-67
2023/02/10 19:01:21;;;;;;;;;59.25;49.00;;;;;;;;6401759;22;46006;-68
2023/02/10 19:03:46;;;;;;;;;59.25;48.50;;;;;;;;6401963;22;45382;-67
2023/02/10 19:06:11;;;;;;;;;60.75;48.50;;;;;;;;6401896;22;45263;-66
2023/02/10 19:08:37;;;;;;;;;63.75;47.00;;;;;;;;6402421;22;45276;-67
2023/02/10 19:11:04;;;;;;;;;61.00;47.00;;;;;;;;6373093;22;46165;-67
2023/02/10 19:13:29;;;;;;;;;69.75;52.75;;;;;;;;6402018;22;45240;-69
2023/02/10 19:15:55;;;;;;;;;71.25;56.75;;;;;;;;6402403;22;45304;-67
2023/02/10 19:18:20;;;;;;;;;78.50;62.00;;;;;;;;6402280;22;45253;-67
2023/02/10 19:20:45;;;;;;;;;76.00;62.75;;;;;;;;6402464;22;46033;-62
2023/02/10 19:23:10;;;;;;;;;75.75;59.25;;;;;;;;6402222;22;45397;-62
2023/02/10 19:25:36;;;;;;;;;78.25;61.25;;;;;;;;6401219;22;45339;-63
2023/02/10 19:28:01;;;;;;;;;72.75;56.50;;;;;;;;6399908;22;45295;-63
2023/02/10 19:30:26;;;;;;;;;71.50;55.50;;;;;;;;6398820;22;45571;-64
2023/02/10 19:32:51;;;;;;;;;76.00;59.25;;;;;;;;6400546;22;45308;-65
2023/02/10 19:35:16;;;;;;;;;72.50;59.50;;;;;;;;6398379;22;45361;-66
2023/02/10 19:37:42;;;;;;;;;73.00;62.00;;;;;;;;6399045;22;45451;-64
2023/02/10 19:40:07;;;;;;;;;77.25;66.25;;;;;;;;6400134;22;46273;-65
2023/02/10 19:42:32;;;;;;;;;84.75;75.50;;;;;;;;6400280;22;45249;-65
2023/02/10 19:44:58;;;;;;;;;86.25;77.25;;;;;;;;6399386;22;45296;-64
2023/02/10 19:47:23;;;;;;;;;94.50;83.75;;;;;;;;6401134;22;45745;-65
2023/02/10 19:49:48;;;;;;;;;107.50;95.25;;;;;;;;6398164;22;46260;-64
2023/02/10 19:52:13;;;;;;;;;101.50;89.00;;;;;;;;6399764;22;45277;-64
2023/02/10 19:54:39;;;;;;;;;111.25;97.25;;;;;;;;6398756;22;45286;-64
2023/02/10 19:57:04;;;;;;;;;101.00;91.25;;;;;;;;6398358;22;45488;-63
2023/02/10 19:59:29;;;;;;;;;92.00;83.50;;;;;;;;6401596;22;46221;-64
2023/02/10 20:01:54;;;;;;;;;92.00;84.25;;;;;;;;6402471;22;45295;-63
2023/02/10 20:04:19;;;;;;;;;91.25;81.75;;;;;;;;6401095;22;45316;-63
2023/02/10 20:06:45;;;;;;;;;95.50;88.75;;;;;;;;6402207;22;45447;-63
2023/02/10 20:09:11;;;;;;;;;89.50;81.00;;;;;;;;6399530;22;45322;-63
2023/02/10 20:11:36;;;;;;;;;86.75;77.75;;;;;;;;6400768;22;45241;-64
2023/02/10 20:14:01;;;;;;;;;78.75;61.25;;;;;;;;6372204;22;45363;-60
2023/02/10 20:16:27;;;;;;;;;77.25;64.75;;;;;;;;6399639;22;45484;-62
2023/02/10 20:18:52;;;;;;;;;75.25;63.75;;;;;;;;6400551;22;45331;-61
2023/02/10 20:21:18;;;;;;;;;71.50;57.25;;;;;;;;6401211;22;45290;-61
2023/02/10 20:23:43;;;;;;;;;72.75;57.25;;;;;;;;6401876;22;45320;-61
2023/02/10 20:26:10;;;;;;;;;76.25;59.50;;;;;;;;6400714;22;45570;-62
2023/02/10 20:28:35;;;;;;;;;71.00;56.25;;;;;;;;6398915;22;46126;-62
2023/02/10 20:31:01;;;;;;;;;72.25;57.00;;;;;;;;6401178;22;45430;-62
2023/02/10 20:33:27;;;;;;;;;75.50;63.25;;;;;;;;6400757;22;45375;-61
2023/02/10 20:35:57;;;;;;;;;84.25;69.75;;;;;;;;6401388;22;45277;-62
2023/02/10 20:38:22;;;;;;;;;80.00;70.25;;;;;;;;6399710;22;46901;-61
2023/02/10 20:40:47;;;;;;;;;75.75;58.25;;;;;;;;6402288;22;45300;-61
2023/02/10 20:43:12;;;;;;;;;83.75;70.75;;;;;;;;6403407;22;45390;-60
2023/02/10 20:45:37;;;;;;;;;83.50;69.50;;;;;;;;6404141;22;45179;-61
2023/02/10 20:48:03;;;;;;;;;83.00;69.75;;;;;;;;6402496;22;45299;-60
2023/02/10 20:50:28;;;;;;;;;94.25;83.50;;;;;;;;6402573;22;45634;-61
2023/02/10 20:52:53;;;;;;;;;85.75;73.25;;;;;;;;6402755;22;45332;-61
2023/02/10 20:55:18;;;;;;;;;83.25;73.25;;;;;;;;6402455;22;45352;-61
2023/02/10 20:57:44;;;;;;;;;82.25;68.25;;;;;;;;6402636;22;46036;-61